sensor_id;sensor_type;location;lat;lon;timestamp;temperature;humidity
6054;DHT22;3055;50.886;14.814;2022-11-11T00:00:21;6.60;99.90
6054;DHT22;3055;50.886;14.814;2022-11-11T00:02:50;6.60;99.90
6054;DHT22;3055;50.886;14.814;2022-11-11T00:05:17;6.70;99.90
6054;DHT22;3055;50.886;14.814;2022-11-11T00:07:44;6.80;99.90
6054;DHT22;3055;50.886;14.814;2022-11-11T00:10:11;6.80;99.90
6054;DHT22;3055;50.886;14.814;2022-11-11T00:12:38;6.70;99.90
6054;DHT22;3055;50.886;14.814;2022-11-11T00:15:06;6.70;99.90
6054;DHT22;3055;50.886;14.814;2022-11-11T00:17:34;6.80;99.90
6054;DHT22;3055;50.886;14.814;2022-11-11T00:20:20;6.70;99.90
6054;DHT22;3055;50.886;14.814;2022-11-11T00:23:07;6.60;99.90
6054;DHT22;3055;50.886;14.814;2022-11-11T00:25:59;6.30;99.90
6054;DHT22;3055;50.886;14.814;2022-11-11T00:28:27;6.20;99.90
6054;DHT22;3055;50.886;14.814;2022-11-11T00:31:01;6.20;99.90
6054;DHT22;3055;50.886;14.814;2022-11-11T00:33:28;6.20;99.90
6054;DHT22;3055;50.886;14.814;2022-11-11T00:35:56;6.10;99.90
6054;DHT22;3055;50.886;14.814;2022-11-11T00:38:22;6.10;99.90
6054;DHT22;3055;50.886;14.814;2022-11-11T00:41:07;6.10;99.90
6054;DHT22;3055;50.886;14.814;2022-11-11T00:43:35;5.90;99.90
6054;DHT22;3055;50.886;14.814;2022-11-11T00:46:02;5.80;99.90
6054;DHT22;3055;50.886;14.814;2022-11-11T00:48:46;5.80;99.90
6054;DHT22;3055;50.886;14.814;2022-11-11T00:51:32;5.70;99.90
6054;DHT22;3055;50.886;14.814;2022-11-11T00:53:59;5.60;99.90
6054;DHT22;3055;50.886;14.814;2022-11-11T00:56:26;5.60;99.90
6054;DHT22;3055;50.886;14.814;2022-11-11T00:58:53;5.50;99.90
6054;DHT22;3055;50.886;14.814;2022-11-11T01:01:20;5.40;99.90
6054;DHT22;3055;50.886;14.814;2022-11-11T01:03:47;5.40;99.90
6054;DHT22;3055;50.886;14.814;2022-11-11T01:06:14;5.30;99.90
6054;DHT22;3055;50.886;14.814;2022-11-11T01:08:43;5.20;99.90
6054;DHT22;3055;50.886;14.814;2022-11-11T01:11:14;5.20;99.90
6054;DHT22;3055;50.886;14.814;2022-11-11T01:13:42;5.10;99.90
6054;DHT22;3055;50.886;14.814;2022-11-11T01:16:13;5.10;99.90
6054;DHT22;3055;50.886;14.814;2022-11-11T01:18:40;5.10;99.90
6054;DHT22;3055;50.886;14.814;2022-11-11T01:21:10;5.10;99.90
6054;DHT22;3055;50.886;14.814;2022-11-11T01:23:39;5.10;99.90
6054;DHT22;3055;50.886;14.814;2022-11-11T01:26:12;5.10;99.90
6054;DHT22;3055;50.886;14.814;2022-11-11T01:28:39;5.00;99.90
6054;DHT22;3055;50.886;14.814;2022-11-11T01:31:08;4.90;99.90
6054;DHT22;3055;50.886;14.814;2022-11-11T01:33:36;5.00;99.90
6054;DHT22;3055;50.886;14.814;2022-11-11T01:36:05;5.00;99.90
6054;DHT22;3055;50.886;14.814;2022-11-11T01:38:33;4.90;99.90
6054;DHT22;3055;50.886;14.814;2022-11-11T01:41:01;4.90;99.90
6054;DHT22;3055;50.886;14.814;2022-11-11T01:43:51;4.90;99.90
6054;DHT22;3055;50.886;14.814;2022-11-11T01:46:37;5.10;99.90
6054;DHT22;3055;50.886;14.814;2022-11-11T01:49:18;5.40;99.90
6054;DHT22;3055;50.886;14.814;2022-11-11T01:51:56;5.50;99.90
6054;DHT22;3055;50.886;14.814;2022-11-11T01:54:29;5.60;99.90
6054;DHT22;3055;50.886;14.814;2022-11-11T01:57:03;5.60;99.90
6054;DHT22;3055;50.886;14.814;2022-11-11T01:59:33;5.70;99.90
6054;DHT22;3055;50.886;14.814;2022-11-11T02:02:04;5.70;99.90
6054;DHT22;3055;50.886;14.814;2022-11-11T02:04:34;5.80;99.90
6054;DHT22;3055;50.886;14.814;2022-11-11T02:07:20;5.90;99.90
6054;DHT22;3055;50.886;14.814;2022-11-11T02:09:49;6.10;99.90
6054;DHT22;3055;50.886;14.814;2022-11-11T02:12:17;6.10;99.90
6054;DHT22;3055;50.886;14.814;2022-11-11T02:15:04;6.20;99.90
6054;DHT22;3055;50.886;14.814;2022-11-11T02:17:32;6.20;99.90
6054;DHT22;3055;50.886;14.814;2022-11-11T02:20:00;6.30;99.90
6054;DHT22;3055;50.886;14.814;2022-11-11T02:22:33;6.30;99.90
6054;DHT22;3055;50.886;14.814;2022-11-11T02:25:07;6.20;99.90
6054;DHT22;3055;50.886;14.814;2022-11-11T02:27:36;6.20;99.90
6054;DHT22;3055;50.886;14.814;2022-11-11T02:30:07;6.30;99.90
6054;DHT22;3055;50.886;14.814;2022-11-11T02:32:40;6.20;99.90
6054;DHT22;3055;50.886;14.814;2022-11-11T02:35:13;6.10;99.90
6054;DHT22;3055;50.886;14.814;2022-11-11T02:37:42;6.00;99.90
6054;DHT22;3055;50.886;14.814;2022-11-11T02:40:14;6.10;99.90
6054;DHT22;3055;50.886;14.814;2022-11-11T02:42:42;6.00;99.90
6054;DHT22;3055;50.886;14.814;2022-11-11T02:45:08;6.00;99.90
6054;DHT22;3055;50.886;14.814;2022-11-11T02:47:35;6.00;99.90
6054;DHT22;3055;50.886;14.814;2022-11-11T02:50:03;6.10;99.90
6054;DHT22;3055;50.886;14.814;2022-11-11T02:52:30;6.20;99.90
6054;DHT22;3055;50.886;14.814;2022-11-11T02:54:58;6.40;99.90
6054;DHT22;3055;50.886;14.814;2022-11-11T02:57:26;6.60;99.90
6054;DHT22;3055;50.886;14.814;2022-11-11T02:59:54;6.70;99.90
6054;DHT22;3055;50.886;14.814;2022-11-11T03:02:22;6.70;99.90
6054;DHT22;3055;50.886;14.814;2022-11-11T03:04:52;6.70;99.90
6054;DHT22;3055;50.886;14.814;2022-11-11T03:07:19;6.70;99.90
6054;DHT22;3055;50.886;14.814;2022-11-11T03:09:46;6.70;99.90
6054;DHT22;3055;50.886;14.814;2022-11-11T03:12:13;6.70;99.90
6054;DHT22;3055;50.886;14.814;2022-11-11T03:14:42;6.60;99.90
6054;DHT22;3055;50.886;14.814;2022-11-11T03:17:09;6.50;99.90
6054;DHT22;3055;50.886;14.814;2022-11-11T03:19:54;6.50;99.90
6054;DHT22;3055;50.886;14.814;2022-11-11T03:22:42;6.50;99.90
6054;DHT22;3055;50.886;14.814;2022-11-11T03:25:08;6.50;99.90
6054;DHT22;3055;50.886;14.814;2022-11-11T03:27:53;6.50;99.90
6054;DHT22;3055;50.886;14.814;2022-11-11T03:30:21;6.40;99.90
6054;DHT22;3055;50.886;14.814;2022-11-11T03:32:48;6.40;99.90
6054;DHT22;3055;50.886;14.814;2022-11-11T03:35:15;6.30;99.90
6054;DHT22;3055;50.886;14.814;2022-11-11T03:37:42;6.30;99.90
6054;DHT22;3055;50.886;14.814;2022-11-11T03:40:26;6.40;99.90
6054;DHT22;3055;50.886;14.814;2022-11-11T03:42:53;6.40;99.90
6054;DHT22;3055;50.886;14.814;2022-11-11T03:45:22;6.40;99.90
6054;DHT22;3055;50.886;14.814;2022-11-11T03:47:49;6.40;99.90
6054;DHT22;3055;50.886;14.814;2022-11-11T03:50:16;6.40;99.90
6054;DHT22;3055;50.886;14.814;2022-11-11T03:52:43;6.40;99.90
6054;DHT22;3055;50.886;14.814;2022-11-11T03:55:10;6.40;99.90
6054;DHT22;3055;50.886;14.814;2022-11-11T03:57:39;6.40;99.90
6054;DHT22;3055;50.886;14.814;2022-11-11T04:00:08;6.50;99.90
6054;DHT22;3055;50.886;14.814;2022-11-11T04:02:37;6.50;99.90
6054;DHT22;3055;50.886;14.814;2022-11-11T04:05:21;6.60;99.90
6054;DHT22;3055;50.886;14.814;2022-11-11T04:08:10;6.80;99.90
6054;DHT22;3055;50.886;14.814;2022-11-11T04:10:55;6.80;99.90
6054;DHT22;3055;50.886;14.814;2022-11-11T04:13:22;6.90;99.90
6054;DHT22;3055;50.886;14.814;2022-11-11T04:16:06;7.00;99.90
6054;DHT22;3055;50.886;14.814;2022-11-11T04:18:36;7.00;99.90
6054;DHT22;3055;50.886;14.814;2022-11-11T04:21:20;7.10;99.90
6054;DHT22;3055;50.886;14.814;2022-11-11T04:24:06;7.00;99.90
6054;DHT22;3055;50.886;14.814;2022-11-11T04:26:47;7.00;99.90
6054;DHT22;3055;50.886;14.814;2022-11-11T04:29:14;7.00;99.90
6054;DHT22;3055;50.886;14.814;2022-11-11T04:31:56;7.00;99.90
6054;DHT22;3055;50.886;14.814;2022-11-11T04:34:44;7.00;99.90
6054;DHT22;3055;50.886;14.814;2022-11-11T04:37:11;7.00;99.90
6054;DHT22;3055;50.886;14.814;2022-11-11T04:39:39;7.00;99.90
6054;DHT22;3055;50.886;14.814;2022-11-11T04:42:23;7.00;99.90
6054;DHT22;3055;50.886;14.814;2022-11-11T04:44:51;6.90;99.90
6054;DHT22;3055;50.886;14.814;2022-11-11T04:47:35;6.90;99.90
6054;DHT22;3055;50.886;14.814;2022-11-11T04:50:04;7.00;99.90
6054;DHT22;3055;50.886;14.814;2022-11-11T04:52:32;7.00;99.90
6054;DHT22;3055;50.886;14.814;2022-11-11T04:54:59;7.00;99.90
6054;DHT22;3055;50.886;14.814;2022-11-11T04:57:46;7.00;99.90
6054;DHT22;3055;50.886;14.814;2022-11-11T05:00:15;7.00;99.90
6054;DHT22;3055;50.886;14.814;2022-11-11T05:02:42;7.00;99.90
6054;DHT22;3055;50.886;14.814;2022-11-11T05:05:40;7.00;99.90
6054;DHT22;3055;50.886;14.814;2022-11-11T05:08:25;7.10;99.90
6054;DHT22;3055;50.886;14.814;2022-11-11T05:11:09;7.10;99.90
6054;DHT22;3055;50.886;14.814;2022-11-11T05:13:36;7.10;99.90
6054;DHT22;3055;50.886;14.814;2022-11-11T05:16:23;7.10;99.90
6054;DHT22;3055;50.886;14.814;2022-11-11T05:19:09;7.20;99.90
6054;DHT22;3055;50.886;14.814;2022-11-11T05:21:56;7.20;99.90
6054;DHT22;3055;50.886;14.814;2022-11-11T05:24:24;7.20;99.90
6054;DHT22;3055;50.886;14.814;2022-11-11T05:27:11;7.20;99.90
6054;DHT22;3055;50.886;14.814;2022-11-11T05:29:38;7.20;99.90
6054;DHT22;3055;50.886;14.814;2022-11-11T05:32:07;7.20;99.90
6054;DHT22;3055;50.886;14.814;2022-11-11T05:34:34;7.20;99.90
6054;DHT22;3055;50.886;14.814;2022-11-11T05:37:02;7.20;99.90
6054;DHT22;3055;50.886;14.814;2022-11-11T05:39:29;7.20;99.90
6054;DHT22;3055;50.886;14.814;2022-11-11T05:41:56;7.20;99.90
6054;DHT22;3055;50.886;14.814;2022-11-11T05:44:23;7.20;99.90
6054;DHT22;3055;50.886;14.814;2022-11-11T05:46:50;7.20;99.90
6054;DHT22;3055;50.886;14.814;2022-11-11T05:49:17;7.20;99.90
6054;DHT22;3055;50.886;14.814;2022-11-11T05:51:45;7.20;99.90
6054;DHT22;3055;50.886;14.814;2022-11-11T05:54:14;7.30;99.90
6054;DHT22;3055;50.886;14.814;2022-11-11T05:56:41;7.30;99.90
6054;DHT22;3055;50.886;14.814;2022-11-11T05:59:08;7.30;99.90
6054;DHT22;3055;50.886;14.814;2022-11-11T06:01:36;7.30;99.90
6054;DHT22;3055;50.886;14.814;2022-11-11T06:04:04;7.30;99.90
6054;DHT22;3055;50.886;14.814;2022-11-11T06:06:32;7.30;99.90
6054;DHT22;3055;50.886;14.814;2022-11-11T06:09:00;7.30;99.90
6054;DHT22;3055;50.886;14.814;2022-11-11T06:11:29;7.30;99.90
6054;DHT22;3055;50.886;14.814;2022-11-11T06:13:57;7.30;99.90
6054;DHT22;3055;50.886;14.814;2022-11-11T06:16:24;7.40;99.90
6054;DHT22;3055;50.886;14.814;2022-11-11T06:18:51;7.40;99.90
6054;DHT22;3055;50.886;14.814;2022-11-11T06:21:18;7.40;99.90
6054;DHT22;3055;50.886;14.814;2022-11-11T06:23:45;7.40;99.90
6054;DHT22;3055;50.886;14.814;2022-11-11T06:26:13;7.40;99.90
6054;DHT22;3055;50.886;14.814;2022-11-11T06:28:43;7.40;99.90
6054;DHT22;3055;50.886;14.814;2022-11-11T06:31:12;7.50;99.90
6054;DHT22;3055;50.886;14.814;2022-11-11T06:33:40;7.50;99.90
6054;DHT22;3055;50.886;14.814;2022-11-11T06:36:09;7.60;99.90
6054;DHT22;3055;50.886;14.814;2022-11-11T06:38:36;7.60;99.90
6054;DHT22;3055;50.886;14.814;2022-11-11T06:41:04;7.70;99.90
6054;DHT22;3055;50.886;14.814;2022-11-11T06:43:31;7.70;99.90
6054;DHT22;3055;50.886;14.814;2022-11-11T06:45:59;7.70;99.90
6054;DHT22;3055;50.886;14.814;2022-11-11T06:48:28;7.70;99.90
6054;DHT22;3055;50.886;14.814;2022-11-11T06:51:00;7.70;99.90
6054;DHT22;3055;50.886;14.814;2022-11-11T06:53:27;7.70;99.90
6054;DHT22;3055;50.886;14.814;2022-11-11T06:55:55;7.70;99.90
6054;DHT22;3055;50.886;14.814;2022-11-11T06:58:22;7.80;99.90
6054;DHT22;3055;50.886;14.814;2022-11-11T07:00:50;7.80;99.90
6054;DHT22;3055;50.886;14.814;2022-11-11T07:03:20;7.80;99.90
6054;DHT22;3055;50.886;14.814;2022-11-11T07:05:47;7.80;99.90
6054;DHT22;3055;50.886;14.814;2022-11-11T07:08:16;7.80;99.90
6054;DHT22;3055;50.886;14.814;2022-11-11T07:10:44;7.90;99.90
6054;DHT22;3055;50.886;14.814;2022-11-11T07:13:12;7.90;99.90
6054;DHT22;3055;50.886;14.814;2022-11-11T07:15:40;7.90;99.90
6054;DHT22;3055;50.886;14.814;2022-11-11T07:18:07;7.90;99.90
6054;DHT22;3055;50.886;14.814;2022-11-11T07:20:35;7.90;99.90
6054;DHT22;3055;50.886;14.814;2022-11-11T07:23:03;7.90;99.90
6054;DHT22;3055;50.886;14.814;2022-11-11T07:25:30;7.90;99.90
6054;DHT22;3055;50.886;14.814;2022-11-11T07:27:57;7.90;99.90
6054;DHT22;3055;50.886;14.814;2022-11-11T07:30:25;7.90;99.90
6054;DHT22;3055;50.886;14.814;2022-11-11T07:32:52;7.90;99.90
6054;DHT22;3055;50.886;14.814;2022-11-11T07:35:20;7.90;99.90
6054;DHT22;3055;50.886;14.814;2022-11-11T07:37:49;7.90;99.90
6054;DHT22;3055;50.886;14.814;2022-11-11T07:40:18;7.90;99.90
6054;DHT22;3055;50.886;14.814;2022-11-11T07:42:45;7.90;99.90
6054;DHT22;3055;50.886;14.814;2022-11-11T07:45:13;8.00;99.90
6054;DHT22;3055;50.886;14.814;2022-11-11T07:47:42;8.00;99.90
6054;DHT22;3055;50.886;14.814;2022-11-11T07:50:10;8.00;99.90
6054;DHT22;3055;50.886;14.814;2022-11-11T07:52:37;8.00;99.90
6054;DHT22;3055;50.886;14.814;2022-11-11T07:55:07;8.10;99.90
6054;DHT22;3055;50.886;14.814;2022-11-11T07:57:35;8.10;99.90
6054;DHT22;3055;50.886;14.814;2022-11-11T08:00:04;8.10;99.90
6054;DHT22;3055;50.886;14.814;2022-11-11T08:02:31;8.10;99.90
6054;DHT22;3055;50.886;14.814;2022-11-11T08:04:58;8.20;99.90
6054;DHT22;3055;50.886;14.814;2022-11-11T08:07:25;8.20;99.90
6054;DHT22;3055;50.886;14.814;2022-11-11T08:09:52;8.30;99.90
6054;DHT22;3055;50.886;14.814;2022-11-11T08:12:21;8.40;99.90
6054;DHT22;3055;50.886;14.814;2022-11-11T08:15:06;8.40;99.90
6054;DHT22;3055;50.886;14.814;2022-11-11T08:17:36;8.60;99.90
6054;DHT22;3055;50.886;14.814;2022-11-11T08:20:05;8.80;99.90
6054;DHT22;3055;50.886;14.814;2022-11-11T08:22:37;8.90;99.90
6054;DHT22;3055;50.886;14.814;2022-11-11T08:25:06;8.90;97.90
6054;DHT22;3055;50.886;14.814;2022-11-11T08:27:35;9.00;97.20
6054;DHT22;3055;50.886;14.814;2022-11-11T08:30:05;9.10;94.20
6054;DHT22;3055;50.886;14.814;2022-11-11T08:32:33;9.10;88.40
6054;DHT22;3055;50.886;14.814;2022-11-11T08:35:00;9.20;51.00
6054;DHT22;3055;50.886;14.814;2022-11-11T08:37:27;9.30;52.10
6054;DHT22;3055;50.886;14.814;2022-11-11T08:39:54;9.40;45.20
6054;DHT22;3055;50.886;14.814;2022-11-11T08:42:22;9.50;28.60
6054;DHT22;3055;50.886;14.814;2022-11-11T08:44:50;9.50;7.20
6054;DHT22;3055;50.886;14.814;2022-11-11T08:47:17;9.60;16.60
6054;DHT22;3055;50.886;14.814;2022-11-11T08:49:45;9.70;16.50
6054;DHT22;3055;50.886;14.814;2022-11-11T08:52:14;9.80;7.00
6054;DHT22;3055;50.886;14.814;2022-11-11T08:54:41;9.80;1.70
6054;DHT22;3055;50.886;14.814;2022-11-11T08:57:08;9.80;1.00
6054;DHT22;3055;50.886;14.814;2022-11-11T08:59:35;9.80;1.00
6054;DHT22;3055;50.886;14.814;2022-11-11T09:02:04;9.90;1.00
6054;DHT22;3055;50.886;14.814;2022-11-11T09:04:31;9.90;1.00
6054;DHT22;3055;50.886;14.814;2022-11-11T09:06:58;9.90;1.00
6054;DHT22;3055;50.886;14.814;2022-11-11T09:09:25;9.90;1.00
6054;DHT22;3055;50.886;14.814;2022-11-11T09:11:52;9.90;1.00
6054;DHT22;3055;50.886;14.814;2022-11-11T09:14:19;9.90;1.00
6054;DHT22;3055;50.886;14.814;2022-11-11T09:16:46;9.90;1.00
6054;DHT22;3055;50.886;14.814;2022-11-11T09:19:14;9.80;1.00
6054;DHT22;3055;50.886;14.814;2022-11-11T09:21:41;9.80;1.00
6054;DHT22;3055;50.886;14.814;2022-11-11T09:24:08;9.80;1.00
6054;DHT22;3055;50.886;14.814;2022-11-11T09:26:35;9.80;1.00
6054;DHT22;3055;50.886;14.814;2022-11-11T09:29:02;9.80;1.00
6054;DHT22;3055;50.886;14.814;2022-11-11T09:31:29;9.90;1.00
6054;DHT22;3055;50.886;14.814;2022-11-11T09:33:56;9.90;1.00
6054;DHT22;3055;50.886;14.814;2022-11-11T09:36:25;10.00;1.00
6054;DHT22;3055;50.886;14.814;2022-11-11T09:38:52;10.00;1.00
6054;DHT22;3055;50.886;14.814;2022-11-11T09:41:21;10.00;1.00
6054;DHT22;3055;50.886;14.814;2022-11-11T09:43:53;10.00;1.00
6054;DHT22;3055;50.886;14.814;2022-11-11T09:46:36;9.90;1.00
6054;DHT22;3055;50.886;14.814;2022-11-11T09:52:08;9.80;1.00
6054;DHT22;3055;50.886;14.814;2022-11-11T09:54:42;9.90;1.00
6054;DHT22;3055;50.886;14.814;2022-11-11T09:57:15;9.90;1.00
6054;DHT22;3055;50.886;14.814;2022-11-11T09:59:47;9.80;1.00
6054;DHT22;3055;50.886;14.814;2022-11-11T10:02:21;9.80;1.00
6054;DHT22;3055;50.886;14.814;2022-11-11T10:04:55;9.70;1.00
6054;DHT22;3055;50.886;14.814;2022-11-11T10:07:34;9.60;2.10
6054;DHT22;3055;50.886;14.814;2022-11-11T10:10:08;9.60;11.10
6054;DHT22;3055;50.886;14.814;2022-11-11T10:12:41;9.60;18.00
6054;DHT22;3055;50.886;14.814;2022-11-11T10:15:12;9.50;19.90
6054;DHT22;3055;50.886;14.814;2022-11-11T10:17:47;9.50;16.50
6054;DHT22;3055;50.886;14.814;2022-11-11T10:20:21;9.50;28.90
6054;DHT22;3055;50.886;14.814;2022-11-11T10:22:56;9.50;28.10
6054;DHT22;3055;50.886;14.814;2022-11-11T10:25:25;9.50;24.50
6054;DHT22;3055;50.886;14.814;2022-11-11T10:27:55;9.50;20.30
6054;DHT22;3055;50.886;14.814;2022-11-11T10:30:26;9.60;21.20
6054;DHT22;3055;50.886;14.814;2022-11-11T10:32:56;9.70;18.00
6054;DHT22;3055;50.886;14.814;2022-11-11T10:35:25;9.70;1.10
6054;DHT22;3055;50.886;14.814;2022-11-11T10:38:01;9.90;1.00
6054;DHT22;3055;50.886;14.814;2022-11-11T10:40:38;10.10;1.00
6054;DHT22;3055;50.886;14.814;2022-11-11T10:43:18;10.20;1.00
6054;DHT22;3055;50.886;14.814;2022-11-11T10:45:52;10.40;1.00
6054;DHT22;3055;50.886;14.814;2022-11-11T10:48:24;10.40;1.00
6054;DHT22;3055;50.886;14.814;2022-11-11T10:50:57;10.40;1.00
6054;DHT22;3055;50.886;14.814;2022-11-11T10:53:32;10.40;1.00
6054;DHT22;3055;50.886;14.814;2022-11-11T10:56:05;10.50;1.00
6054;DHT22;3055;50.886;14.814;2022-11-11T10:58:37;10.50;1.00
6054;DHT22;3055;50.886;14.814;2022-11-11T11:01:09;10.50;1.00
6054;DHT22;3055;50.886;14.814;2022-11-11T11:03:42;10.50;1.00
6054;DHT22;3055;50.886;14.814;2022-11-11T11:06:15;10.50;1.00
6054;DHT22;3055;50.886;14.814;2022-11-11T11:08:48;10.40;1.00
6054;DHT22;3055;50.886;14.814;2022-11-11T11:11:21;10.30;1.00
6054;DHT22;3055;50.886;14.814;2022-11-11T11:13:51;10.20;1.00
6054;DHT22;3055;50.886;14.814;2022-11-11T11:16:22;10.20;1.00
6054;DHT22;3055;50.886;14.814;2022-11-11T11:19:14;10.10;1.00
6054;DHT22;3055;50.886;14.814;2022-11-11T11:21:48;10.20;1.00
6054;DHT22;3055;50.886;14.814;2022-11-11T11:24:21;10.20;1.00
6054;DHT22;3055;50.886;14.814;2022-11-11T11:26:50;10.10;1.00
6054;DHT22;3055;50.886;14.814;2022-11-11T11:29:25;10.00;1.00
6054;DHT22;3055;50.886;14.814;2022-11-11T11:31:53;10.00;1.00
6054;DHT22;3055;50.886;14.814;2022-11-11T11:34:20;10.10;1.00
6054;DHT22;3055;50.886;14.814;2022-11-11T11:37:02;10.20;1.00
6054;DHT22;3055;50.886;14.814;2022-11-11T11:39:34;10.30;1.00
6054;DHT22;3055;50.886;14.814;2022-11-11T11:42:01;10.20;1.00
6054;DHT22;3055;50.886;14.814;2022-11-11T11:44:30;10.20;1.00
6054;DHT22;3055;50.886;14.814;2022-11-11T11:47:07;10.20;1.00
6054;DHT22;3055;50.886;14.814;2022-11-11T11:49:52;10.30;1.00
6054;DHT22;3055;50.886;14.814;2022-11-11T11:52:29;10.30;1.00
6054;DHT22;3055;50.886;14.814;2022-11-11T11:55:06;10.30;1.00
6054;DHT22;3055;50.886;14.814;2022-11-11T11:57:45;10.30;1.00
6054;DHT22;3055;50.886;14.814;2022-11-11T12:00:19;10.30;1.00
6054;DHT22;3055;50.886;14.814;2022-11-11T12:03:02;10.30;1.00
6054;DHT22;3055;50.886;14.814;2022-11-11T12:05:39;10.40;1.00
6054;DHT22;3055;50.886;14.814;2022-11-11T12:08:22;10.40;1.00
6054;DHT22;3055;50.886;14.814;2022-11-11T12:10:58;10.40;1.00
6054;DHT22;3055;50.886;14.814;2022-11-11T12:13:36;10.30;1.00
6054;DHT22;3055;50.886;14.814;2022-11-11T12:16:18;10.30;1.00
6054;DHT22;3055;50.886;14.814;2022-11-11T12:19:01;10.30;1.00
6054;DHT22;3055;50.886;14.814;2022-11-11T12:21:38;10.40;1.00
6054;DHT22;3055;50.886;14.814;2022-11-11T12:24:15;10.50;1.00
6054;DHT22;3055;50.886;14.814;2022-11-11T12:26:55;10.40;1.00
6054;DHT22;3055;50.886;14.814;2022-11-11T12:29:35;10.50;1.00
6054;DHT22;3055;50.886;14.814;2022-11-11T12:32:24;10.50;1.00
6054;DHT22;3055;50.886;14.814;2022-11-11T12:35:11;10.50;1.00
6054;DHT22;3055;50.886;14.814;2022-11-11T12:37:50;10.60;1.00
6054;DHT22;3055;50.886;14.814;2022-11-11T12:40:34;10.60;1.00
6054;DHT22;3055;50.886;14.814;2022-11-11T12:43:14;10.60;1.00
6054;DHT22;3055;50.886;14.814;2022-11-11T12:45:47;10.60;1.00
6054;DHT22;3055;50.886;14.814;2022-11-11T12:48:31;10.60;1.00
6054;DHT22;3055;50.886;14.814;2022-11-11T12:51:04;10.60;1.00
6054;DHT22;3055;50.886;14.814;2022-11-11T12:53:40;10.60;1.00
6054;DHT22;3055;50.886;14.814;2022-11-11T12:56:19;10.60;1.00
6054;DHT22;3055;50.886;14.814;2022-11-11T12:58:55;10.60;1.00
6054;DHT22;3055;50.886;14.814;2022-11-11T13:01:32;10.60;1.00
6054;DHT22;3055;50.886;14.814;2022-11-11T13:04:28;10.60;1.00
6054;DHT22;3055;50.886;14.814;2022-11-11T13:07:19;10.60;1.00
6054;DHT22;3055;50.886;14.814;2022-11-11T13:10:07;10.60;1.00
6054;DHT22;3055;50.886;14.814;2022-11-11T13:12:44;10.60;1.00
6054;DHT22;3055;50.886;14.814;2022-11-11T13:15:17;10.70;1.00
6054;DHT22;3055;50.886;14.814;2022-11-11T13:17:47;10.70;1.00
6054;DHT22;3055;50.886;14.814;2022-11-11T13:20:20;10.70;1.00
6054;DHT22;3055;50.886;14.814;2022-11-11T13:22:53;10.70;1.00
6054;DHT22;3055;50.886;14.814;2022-11-11T13:25:22;10.70;1.00
6054;DHT22;3055;50.886;14.814;2022-11-11T13:27:53;10.70;1.00
6054;DHT22;3055;50.886;14.814;2022-11-11T13:30:43;10.70;1.00
6054;DHT22;3055;50.886;14.814;2022-11-11T13:33:13;10.70;1.00
6054;DHT22;3055;50.886;14.814;2022-11-11T13:35:43;10.80;1.00
6054;DHT22;3055;50.886;14.814;2022-11-11T13:38:23;10.70;1.00
6054;DHT22;3055;50.886;14.814;2022-11-11T13:40:53;10.80;1.00
6054;DHT22;3055;50.886;14.814;2022-11-11T13:43:23;10.80;1.00
6054;DHT22;3055;50.886;14.814;2022-11-11T13:45:56;10.80;1.00
6054;DHT22;3055;50.886;14.814;2022-11-11T13:48:26;10.80;1.00
6054;DHT22;3055;50.886;14.814;2022-11-11T13:51:19;10.70;1.00
6054;DHT22;3055;50.886;14.814;2022-11-11T13:53:48;10.70;1.00
6054;DHT22;3055;50.886;14.814;2022-11-11T13:56:23;10.60;1.00
6054;DHT22;3055;50.886;14.814;2022-11-11T13:58:52;10.60;1.00
6054;DHT22;3055;50.886;14.814;2022-11-11T14:01:22;10.50;1.00
6054;DHT22;3055;50.886;14.814;2022-11-11T14:04:02;10.40;1.00
6054;DHT22;3055;50.886;14.814;2022-11-11T14:06:48;10.30;1.00
6054;DHT22;3055;50.886;14.814;2022-11-11T14:09:51;10.10;4.70
6054;DHT22;3055;50.886;14.814;2022-11-11T14:12:33;10.10;15.20
6054;DHT22;3055;50.886;14.814;2022-11-11T14:15:01;10.00;26.20
6054;DHT22;3055;50.886;14.814;2022-11-11T14:17:34;9.90;27.10
6054;DHT22;3055;50.886;14.814;2022-11-11T14:20:37;9.90;29.20
6054;DHT22;3055;50.886;14.814;2022-11-11T14:23:25;9.90;35.10
6054;DHT22;3055;50.886;14.814;2022-11-11T14:26:15;9.90;40.00
6054;DHT22;3055;50.886;14.814;2022-11-11T14:28:51;9.80;43.60
6054;DHT22;3055;50.886;14.814;2022-11-11T14:31:48;9.80;51.60
6054;DHT22;3055;50.886;14.814;2022-11-11T14:34:26;9.70;53.30
6054;DHT22;3055;50.886;14.814;2022-11-11T14:37:02;9.70;57.30
6054;DHT22;3055;50.886;14.814;2022-11-11T14:39:41;9.70;59.20
6054;DHT22;3055;50.886;14.814;2022-11-11T14:42:43;9.60;65.90
6054;DHT22;3055;50.886;14.814;2022-11-11T14:48:49;9.50;78.90
6054;DHT22;3055;50.886;14.814;2022-11-11T14:54:33;9.40;98.00
6054;DHT22;3055;50.886;14.814;2022-11-11T14:57:05;9.30;99.90
6054;DHT22;3055;50.886;14.814;2022-11-11T14:59:34;9.30;99.90
6054;DHT22;3055;50.886;14.814;2022-11-11T15:02:03;9.20;99.90
6054;DHT22;3055;50.886;14.814;2022-11-11T15:04:37;9.20;99.90
6054;DHT22;3055;50.886;14.814;2022-11-11T15:07:16;9.20;99.90
6054;DHT22;3055;50.886;14.814;2022-11-11T15:10:02;9.20;99.90
6054;DHT22;3055;50.886;14.814;2022-11-11T15:12:45;9.10;99.90
6054;DHT22;3055;50.886;14.814;2022-11-11T15:15:20;9.10;99.90
6054;DHT22;3055;50.886;14.814;2022-11-11T15:18:00;9.00;99.90
6054;DHT22;3055;50.886;14.814;2022-11-11T15:20:55;9.00;99.90
6054;DHT22;3055;50.886;14.814;2022-11-11T15:23:30;9.00;99.90
6054;DHT22;3055;50.886;14.814;2022-11-11T15:26:08;9.00;99.90
6054;DHT22;3055;50.886;14.814;2022-11-11T15:31:38;9.00;99.90
6054;DHT22;3055;50.886;14.814;2022-11-11T15:34:19;8.90;99.90
6054;DHT22;3055;50.886;14.814;2022-11-11T15:36:52;8.90;99.90
6054;DHT22;3055;50.886;14.814;2022-11-11T15:39:24;8.90;99.90
6054;DHT22;3055;50.886;14.814;2022-11-11T15:41:54;8.90;99.90
6054;DHT22;3055;50.886;14.814;2022-11-11T15:44:23;8.80;99.90
6054;DHT22;3055;50.886;14.814;2022-11-11T15:46:52;8.80;99.90
6054;DHT22;3055;50.886;14.814;2022-11-11T15:49:39;8.80;99.90
6054;DHT22;3055;50.886;14.814;2022-11-11T15:52:26;8.70;99.90
6054;DHT22;3055;50.886;14.814;2022-11-11T15:54:55;8.60;99.90
6054;DHT22;3055;50.886;14.814;2022-11-11T15:57:25;8.50;99.90
6054;DHT22;3055;50.886;14.814;2022-11-11T15:59:53;8.50;99.90
6054;DHT22;3055;50.886;14.814;2022-11-11T16:02:22;8.40;99.90
6054;DHT22;3055;50.886;14.814;2022-11-11T16:04:54;8.40;99.90
6054;DHT22;3055;50.886;14.814;2022-11-11T16:07:23;8.40;99.90
6054;DHT22;3055;50.886;14.814;2022-11-11T16:09:51;8.50;99.90
6054;DHT22;3055;50.886;14.814;2022-11-11T16:12:23;8.50;99.90
6054;DHT22;3055;50.886;14.814;2022-11-11T16:14:53;8.50;99.90
6054;DHT22;3055;50.886;14.814;2022-11-11T16:17:25;8.50;99.90
6054;DHT22;3055;50.886;14.814;2022-11-11T16:19:54;8.50;99.90
6054;DHT22;3055;50.886;14.814;2022-11-11T16:22:24;8.60;99.90
6054;DHT22;3055;50.886;14.814;2022-11-11T16:24:53;8.60;99.90
6054;DHT22;3055;50.886;14.814;2022-11-11T16:27:25;8.60;99.90
6054;DHT22;3055;50.886;14.814;2022-11-11T16:29:54;8.60;99.90
6054;DHT22;3055;50.886;14.814;2022-11-11T16:32:39;8.60;99.90
6054;DHT22;3055;50.886;14.814;2022-11-11T16:35:22;8.60;99.90
6054;DHT22;3055;50.886;14.814;2022-11-11T16:37:51;8.60;99.90
6054;DHT22;3055;50.886;14.814;2022-11-11T16:43:30;8.50;99.90
6054;DHT22;3055;50.886;14.814;2022-11-11T16:46:01;8.40;99.90
6054;DHT22;3055;50.886;14.814;2022-11-11T16:48:44;8.40;99.90
6054;DHT22;3055;50.886;14.814;2022-11-11T16:51:16;8.40;99.90
6054;DHT22;3055;50.886;14.814;2022-11-11T16:53:48;8.40;99.90